Latest Coastal Weather Observations for Middle Percy Island

IDQ60701

Issued at 11:55 pm EST Monday 1 September 2014 (issued every 10 minutes, with the page automatically refreshed every 10 minutes)

About coastal observations | Map of coastal stations | Coastal observations for QLD | Marine services | Other Formats
Station Details ID: 200001 Name: MIDDLE PERCY ISLAND Lat: -21.66 Lon: 150.27 Height: 208.7 m
Data from the previous 72 hours. | See also: Recent months at Middle Percy Island
Date/Time
EST
Temp

°C
Wind Pressure Rain
since 9am
mm
Weather Cloud Vis
km
Sea
Height
m
Swell
Dir
 
Speed
knots
Gust
knots
hPa Trend Height
m
Period
s
Dir
01/11:30pm 17.7 ENE 5 8 1018.1 - 0.0 - - - - - - -
01/11:00pm 17.6 ENE 6 8 1018.2 - 0.0 - - - - - - -
01/10:30pm 17.6 E 6 7 1018.5 - 0.0 - - - - - - -
01/10:00pm 17.7 ENE 6 7 1018.4 - 0.0 - - - - - - -
01/09:30pm 17.8 ENE 6 8 1018.5 - 0.0 - - - - - - -
01/09:00pm 17.7 ENE 5 7 1018.6 - 0.0 - - - - - - -
01/08:30pm 17.7 E 6 8 1018.6 - 0.0 - - - - - - -
01/08:00pm 17.9 ENE 6 8 1018.5 - 0.0 - - - - - - -
01/07:30pm 17.7 E 5 6 1018.3 - 0.0 - - - - - - -
01/07:00pm 17.7 E 5 5 1018.0 - 0.0 - - - - - - -
01/06:30pm 17.6 E 5 6 1017.6 - 0.0 - - - - - - -
01/06:00pm 17.7 E 4 6 1017.6 - 0.0 - - - - - - -
01/05:30pm 18.5 ESE 3 4 1017.4 - 0.0 - - - - - - -
01/05:00pm 19.5 ENE 4 6 1017.1 - 0.0 - - - - - - -
01/04:30pm 20.1 ESE 6 8 1017.0 - 0.0 - - - - - - -
01/04:00pm 20.4 SE 4 6 1016.8 - 0.0 - - - - - - -
01/03:30pm 20.6 SSE 5 7 1016.6 - 0.0 - - - - - - -
01/03:00pm 20.9 SE 3 6 1017.0 - 0.0 - - - - - - -
01/02:30pm 20.9 SSW 5 7 1017.4 - 0.0 - - - - - - -
01/02:00pm 21.9 N 3 6 1017.5 - 0.0 - - - - - - -
01/01:30pm 21.4 ESE 4 9 1017.6 - 0.0 - - - - - - -
01/01:00pm 20.5 SW 2 5 1018.2 - 0.0 - - - - - - -
01/12:30pm 20.2 SSW 5 9 1018.7 - 0.0 - - - - - - -
01/12:00pm 22.6 SE 4 6 1018.7 - 0.0 - - - - - - -
01/11:30am 21.4 ESE 3 6 1019.0 - 0.0 - - - - - - -
01/11:00am 21.2 SE 4 6 1019.2 - 0.0 - - - - - - -
01/10:30am 21.5 ESE 4 6 1019.7 - 0.0 - - - - - - -
01/10:00am 21.0 SSE 5 8 1020.1 - 0.0 - - - - - - -
01/09:30am 20.4 SE 4 8 1020.3 - 0.0 - - - - - - -
01/09:00am 20.1 SE 5 7 1020.2 - 0.0 - - - - - - -
01/08:30am 19.6 SE 6 9 1020.1 - 0.0 - - - - - - -
01/08:00am 19.8 ESE 4 5 1019.7 - 0.0 - - - - - - -
01/07:30am 18.6 ESE 3 6 1019.4 - 0.0 - - - - - - -
01/07:00am 18.1 ENE 5 7 1018.8 - 0.0 - - - - - - -
01/06:30am 17.0 E 6 8 1018.4 - 0.0 - - - - - - -
01/06:00am 16.8 ENE 5 7 1018.2 - 0.0 - - - - - - -
01/05:30am 16.7 ENE 5 6 1018.1 - 0.0 - - - - - - -
01/05:00am 16.4 E 5 6 1017.9 - 0.0 - - - - - - -
01/04:30am 16.6 ENE 4 4 1017.8 - 0.0 - - - - - - -
01/04:00am 16.7 E 2 3 1018.0 - 0.0 - - - - - - -
01/03:30am 16.6 ENE 4 5 1017.9 - 0.0 - - - - - - -
01/03:00am 17.0 NE 3 5 1017.8 - 0.0 - - - - - - -
01/02:30am 16.8 NE 6 7 1017.8 - 0.0 - - - - - - -
01/02:00am 17.1 ENE 3 5 1018.1 - 0.0 - - - - - - -
01/01:30am 17.1 NE 3 4 1018.1 - 0.0 - - - - - - -
01/01:00am 16.9 NE 4 7 1018.0 - 0.0 - - - - - - -
01/12:30am 17.3 NE 4 6 1018.4 - 0.0 - - - - - - -
01/12:00am 17.1 NNE 6 9 1018.5 - 0.0 - - - - - - -
 
Date/Time
EST
Temp

°C
Wind Pressure Rain
since 9am
mm
Weather Cloud Vis
km
Sea
Height
m
Swell
Dir
 
Speed
knots
Gust
knots
hPa Trend Height
m
Period
s
Dir
31/11:30pm 17.2 NNE 6 9 1018.5 - 0.0 - - - - - - -
31/11:00pm 17.3 NNE 6 8 1018.8 - 0.0 - - - - - - -
31/10:30pm 17.6 NNE 8 10 1018.7 - 0.0 - - - - - - -
31/10:00pm 17.5 NNE 9 12 1018.6 - 0.0 - - - - - - -
31/09:30pm 17.8 NNE 10 14 1018.4 - 0.0 - - - - - - -
31/09:00pm 17.8 NNE 10 14 1018.5 - 0.0 - - - - - - -
31/08:30pm 17.9 NNE 9 12 1018.2 - 0.0 - - - - - - -
31/08:00pm 18.1 NE 10 14 1017.9 - 0.0 - - - - - - -
31/07:30pm 17.7 NNE 9 12 1017.6 - 0.0 - - - - - - -
31/07:00pm 17.7 NNE 9 12 1017.2 - 0.0 - - - - - - -
31/06:30pm 17.7 NNE 9 12 1016.9 - 0.0 - - - - - - -
31/06:00pm 17.7 N 9 12 1016.5 - 0.0 - - - - - - -
31/05:30pm 18.2 N 8 12 1016.1 - 0.0 - - - - - - -
31/05:00pm 18.9 N 10 13 1016.0 - 0.0 - - - - - - -
31/04:30pm 19.6 N 6 8 1016.3 - 0.0 - - - - - - -
31/04:00pm 20.2 NNE 5 7 1016.3 - 0.0 - - - - - - -
31/03:30pm 20.6 NNE 4 6 1016.3 - 0.0 - - - - - - -
31/03:00pm 19.1 SE 3 4 1016.4 - 0.0 - - - - - - -
31/02:30pm 19.8 SSE 3 5 1016.5 - 0.0 - - - - - - -
31/02:00pm 20.3 S 4 7 1016.9 - 0.0 - - - - - - -
31/01:30pm 20.3 S 6 8 1017.3 - 0.0 - - - - - - -
31/01:00pm 19.8 S 5 7 1017.7 - 0.0 - - - - - - -
31/12:30pm 19.1 S 6 8 1018.2 - 0.0 - - - - - - -
31/12:00pm 18.9 S 5 8 1018.4 - 0.0 - - - - - - -
31/11:30am 18.9 S 6 8 1018.7 - 0.0 - - - - - - -
31/11:00am 19.4 S 5 6 1019.1 - 0.0 - - - - - - -
31/10:30am 20.1 SSW 5 7 1019.3 - 0.0 - - - - - - -
31/10:00am 20.5 S 6 9 1019.5 - 0.0 - - - - - - -
31/09:30am 20.8 SSE 4 8 1019.7 - 0.0 - - - - - - -
31/09:00am 20.2 SE 3 5 1019.7 - 0.0 - - - - - - -
31/08:30am 19.4 SSE 5 7 1019.7 - 0.0 - - - - - - -
31/08:00am 19.0 SSE 3 5 1019.5 - 0.0 - - - - - - -
31/07:30am 18.3 SSE 2 3 1019.2 - 0.0 - - - - - - -
31/07:00am 17.3 S 2 2 1018.7 - 0.0 - - - - - - -
31/06:30am 16.4 S 1 3 1018.4 - 0.0 - - - - - - -
31/06:00am 16.7 CALM 0 0 1018.0 - 0.0 - - - - - - -
31/05:30am 16.8 ESE 1 2 1017.6 - 0.0 - - - - - - -
31/05:00am 17.1 ESE 1 2 1017.2 - 0.0 - - - - - - -
31/04:30am 16.8 E 2 3 1017.2 - 0.0 - - - - - - -
31/04:00am 17.0 NNE 4 5 1017.0 - 0.0 - - - - - - -
31/03:30am 16.7 N 4 5 1017.1 - 0.0 - - - - - - -
31/03:00am 16.6 NNE 5 6 1017.2 - 0.0 - - - - - - -
31/02:30am 16.4 N 6 8 1017.3 - 0.0 - - - - - - -
31/02:00am 16.6 NNE 7 8 1017.6 - 0.0 - - - - - - -
31/01:30am 16.8 NNE 7 8 1017.8 - 0.0 - - - - - - -
31/01:00am 17.0 NNE 7 9 1018.1 - 0.0 - - - - - - -
31/12:30am 16.9 NNE 7 9 1018.3 - 0.0 - - - - - - -
31/12:00am 17.2 NNE 8 11 1018.7 - 0.0 - - - - - - -
 
Date/Time
EST
Temp

°C
Wind Pressure Rain
since 9am
mm
Weather Cloud Vis
km
Sea
Height
m
Swell
Dir
 
Speed
knots
Gust
knots
hPa Trend Height
m
Period
s
Dir
30/11:30pm 17.5 NNE 9 12 1018.8 - 0.0 - - - - - - -
30/11:00pm 17.4 NNE 8 11 1019.0 - 0.0 - - - - - - -
30/10:30pm 17.6 NNE 8 11 1019.0 - 0.0 - - - - - - -
30/10:00pm 17.8 NNE 10 15 1018.8 - 0.0 - - - - - - -
30/09:30pm 17.7 NNE 11 17 1018.7 - 0.0 - - - - - - -
30/09:00pm 17.7 NNE 12 16 1018.6 - 0.0 - - - - - - -
30/08:30pm 17.5 N 12 15 1018.6 - 0.0 - - - - - - -
30/08:00pm 17.3 N 9 12 1018.6 - 0.0 - - - - - - -
30/07:30pm 17.0 N 9 11 1018.3 - 0.0 - - - - - - -
30/07:00pm 16.9 NNE 7 9 1018.2 - 0.0 - - - - - - -
30/06:30pm 16.8 N 7 8 1018.0 - 0.0 - - - - - - -
30/06:00pm 17.0 N 6 7 1017.8 - 0.0 - - - - - - -
30/05:30pm 17.9 N 4 5 1017.7 - 0.0 - - - - - - -
30/05:00pm 20.5 CALM 0 2 1017.3 - 0.0 - - - - - - -
30/04:30pm 20.1 ESE 1 3 1017.3 - 0.0 - - - - - - -
30/04:00pm 20.3 SSE 3 4 1017.4 - 0.0 - - - - - - -
30/03:30pm 20.4 ESE 3 5 1017.3 - 0.0 - - - - - - -
30/03:00pm 19.8 ESE 3 6 1017.3 - 0.0 - - - - - - -
30/02:30pm 20.7 S 5 8 1017.6 - 0.0 - - - - - - -
30/02:00pm 20.8 S 7 10 1017.7 - 0.0 - - - - - - -
30/01:30pm 20.4 S 9 13 1017.8 - 0.0 - - - - - - -
30/01:00pm 19.6 S 11 14 1018.0 - 0.0 - - - - - - -
30/12:30pm 19.0 S 11 15 1018.4 - 0.0 - - - - - - -
30/12:00pm 18.9 S 10 14 1019.2 - 0.0 - - - - - - -
30/11:30am 19.7 S 10 14 1019.9 - 0.0 - - - - - - -
30/11:00am 19.5 S 11 16 1020.3 - 0.0 - - - - - - -
30/10:30am 19.7 S 12 16 1021.0 - 0.0 - - - - - - -
30/10:00am 18.5 S 11 14 1021.3 - 0.0 - - - - - - -
30/09:30am 18.6 S 10 13 1021.2 - 0.0 - - - - - - -
30/09:00am 18.6 SSE 11 14 1020.9 - 0.0 - - - - - - -
30/08:30am 18.5 S 10 13 1020.8 - 0.0 - - - - - - -
30/08:00am 18.3 SSE 10 13 1020.5 - 0.0 - - - - - - -
30/07:30am 17.8 SSE 9 11 1020.3 - 0.0 - - - - - - -
30/07:00am 16.9 SSE 7 10 1019.9 - 0.0 - - - - - - -
30/06:30am 16.6 SSE 7 9 1019.7 - 0.0 - - - - - - -
30/06:00am 16.5 SSE 6 9 1019.4 - 0.0 - - - - - - -
30/05:30am 16.6 SSE 5 7 1019.3 - 0.0 - - - - - - -
30/05:00am 16.5 SSE 6 7 1018.9 - 0.0 - - - - - - -
30/04:30am 16.4 SSE 5 7 1018.7 - 0.0 - - - - - - -
30/04:00am 16.4 SE 5 8 1018.6 - 0.0 - - - - - - -
30/03:30am 16.7 ESE 6 8 1018.7 - 0.0 - - - - - - -
30/03:00am 16.9 ESE 6 8 1019.0 - 0.0 - - - - - - -
30/02:30am 17.2 ESE 5 9 1019.3 - 0.0 - - - - - - -
30/02:00am 17.3 E 7 10 1019.5 - 0.0 - - - - - - -
30/01:30am 17.3 E 7 9 1019.6 - 0.0 - - - - - - -
30/01:00am 17.4 E 5 7 1019.6 - 0.0 - - - - - - -
30/12:30am 17.5 E 6 9 1019.8 - 0.0 - - - - - - -
30/12:00am 17.5 E 7 9 1019.8 - 0.0 - - - - - - -

Other Formats:

Comma delimited format used in spreadsheet applications
http://www.bom.gov.au/fwo/IDQ60701/IDQ60701.94372.axf

JavaScript Object Notation format (JSON) in row-major order
http://www.bom.gov.au/fwo/IDQ60701/IDQ60701.94372.json